createdAt,value
2023-05-10T00:00:16.198Z,100.00
2023-05-10T00:02:44.775Z,100.00
2023-05-10T00:05:12.757Z,100.00
2023-05-10T00:07:45.754Z,100.00
2023-05-10T00:10:13.949Z,100.00
2023-05-10T00:12:42.044Z,100.00
2023-05-10T00:15:11.051Z,100.00
2023-05-10T00:17:38.999Z,100.00
2023-05-10T00:20:08.153Z,100.00
2023-05-10T00:22:36.493Z,100.00
2023-05-10T00:25:07.184Z,100.00
2023-05-10T00:27:35.193Z,100.00
2023-05-10T00:30:03.197Z,100.00
2023-05-10T00:32:31.125Z,100.00
2023-05-10T00:34:59.078Z,100.00
2023-05-10T00:37:27.150Z,100.00
2023-05-10T00:39:55.082Z,100.00
2023-05-10T00:42:24.420Z,100.00
2023-05-10T00:44:52.333Z,100.00
2023-05-10T00:47:20.553Z,100.00
2023-05-10T00:49:48.487Z,100.00
2023-05-10T00:52:16.548Z,100.00
2023-05-10T00:54:44.702Z,100.00
2023-05-10T00:57:13.281Z,100.00
2023-05-10T00:59:42.791Z,100.00
2023-05-10T01:02:10.903Z,100.00
2023-05-10T01:04:39.741Z,100.00
2023-05-10T01:07:07.760Z,100.00
2023-05-10T01:09:36.783Z,100.00
2023-05-10T01:12:07.955Z,100.00
2023-05-10T01:14:37.330Z,100.00
2023-05-10T01:17:08.214Z,100.00
2023-05-10T01:19:39.064Z,100.00
2023-05-10T01:22:22.331Z,100.00
2023-05-10T01:25:25.489Z,100.00
2023-05-10T01:28:19.782Z,100.00
2023-05-10T01:31:24.895Z,100.00
2023-05-10T01:33:58.007Z,100.00
2023-05-10T01:36:33.250Z,100.00
2023-05-10T01:39:09.518Z,100.00
2023-05-10T01:41:44.937Z,100.00
2023-05-10T01:44:20.203Z,100.00
2023-05-10T01:46:53.603Z,100.00
2023-05-10T01:49:28.047Z,100.00
2023-05-10T01:52:01.531Z,100.00
2023-05-10T01:54:31.219Z,100.00
2023-05-10T01:57:05.862Z,100.00
2023-05-10T01:59:40.252Z,100.00
2023-05-10T02:02:09.204Z,100.00
2023-05-10T02:04:40.728Z,100.00
2023-05-10T02:07:10.224Z,100.00
2023-05-10T02:09:39.303Z,100.00
2023-05-10T02:12:09.413Z,100.00
2023-05-10T02:14:39.090Z,100.00
2023-05-10T02:17:09.749Z,100.00
2023-05-10T02:19:42.802Z,100.00
2023-05-10T02:22:11.899Z,100.00
2023-05-10T02:24:42.011Z,100.00
2023-05-10T02:27:11.964Z,100.00
2023-05-10T02:29:40.994Z,100.00
2023-05-10T02:32:10.886Z,100.00
2023-05-10T02:34:41.648Z,100.00
2023-05-10T02:37:09.985Z,100.00
2023-05-10T02:39:39.510Z,100.00
2023-05-10T02:42:08.539Z,100.00
2023-05-10T02:44:38.912Z,100.00
2023-05-10T02:47:07.014Z,100.00
2023-05-10T02:49:36.023Z,100.00
2023-05-10T02:52:10.073Z,100.00
2023-05-10T02:54:45.373Z,100.00
2023-05-10T02:57:20.378Z,100.00
2023-05-10T02:59:48.442Z,100.00
2023-05-10T03:02:16.446Z,100.00
2023-05-10T03:04:44.466Z,100.00
2023-05-10T03:07:13.880Z,100.00
2023-05-10T03:09:42.399Z,100.00
2023-05-10T03:12:16.530Z,100.00
2023-05-10T03:14:55.144Z,100.00
2023-05-10T03:17:27.931Z,100.00
2023-05-10T03:19:57.456Z,100.00
2023-05-10T03:22:32.415Z,100.00
2023-05-10T03:25:03.649Z,100.00
2023-05-10T03:27:32.481Z,100.00
2023-05-10T03:30:01.096Z,100.00
2023-05-10T03:32:31.348Z,100.00
2023-05-10T03:34:59.386Z,100.00
2023-05-10T03:37:28.696Z,100.00
2023-05-10T03:39:56.652Z,100.00
2023-05-10T03:42:24.605Z,100.00
2023-05-10T03:44:52.522Z,100.00
2023-05-10T03:47:20.892Z,100.00
2023-05-10T03:49:48.995Z,100.00
2023-05-10T03:52:17.022Z,100.00
2023-05-10T03:54:46.354Z,100.00
2023-05-10T03:57:14.219Z,100.00
2023-05-10T03:59:42.139Z,100.00
2023-05-10T04:02:10.079Z,100.00
2023-05-10T04:04:38.077Z,100.00
2023-05-10T04:07:06.065Z,100.00
2023-05-10T04:09:33.990Z,100.00
2023-05-10T04:12:03.653Z,100.00
2023-05-10T04:14:31.567Z,100.00
2023-05-10T04:16:59.476Z,100.00
2023-05-10T04:19:31.424Z,100.00
2023-05-10T04:21:59.416Z,100.00
2023-05-10T04:24:27.361Z,100.00
2023-05-10T04:26:57.798Z,100.00
2023-05-10T04:29:27.747Z,100.00
2023-05-10T04:31:55.658Z,100.00
2023-05-10T04:34:23.690Z,100.00
2023-05-10T04:36:51.640Z,100.00
2023-05-10T04:39:19.536Z,100.00
2023-05-10T04:41:47.598Z,100.00
2023-05-10T04:44:15.518Z,100.00
2023-05-10T04:46:44.898Z,100.00
2023-05-10T04:49:12.875Z,100.00
2023-05-10T04:51:40.752Z,100.00
2023-05-10T04:54:08.660Z,100.00
2023-05-10T04:56:36.574Z,100.00
2023-05-10T04:59:04.659Z,100.00
2023-05-10T05:01:32.705Z,100.00
2023-05-10T05:04:02.510Z,100.00
2023-05-10T05:06:30.464Z,100.00
2023-05-10T05:08:58.389Z,100.00
2023-05-10T05:11:26.640Z,100.00
2023-05-10T05:13:54.616Z,100.00
2023-05-10T05:16:22.564Z,100.00
2023-05-10T05:18:50.617Z,100.00
2023-05-10T05:21:20.929Z,100.00
2023-05-10T05:23:48.868Z,100.00
2023-05-10T05:26:17.069Z,100.00
2023-05-10T05:28:45.012Z,100.00
2023-05-10T05:31:13.172Z,100.00
2023-05-10T05:33:41.172Z,100.00
2023-05-10T05:36:09.349Z,100.00
2023-05-10T05:38:38.657Z,100.00
2023-05-10T05:41:07.062Z,100.00
2023-05-10T05:43:36.793Z,100.00
2023-05-10T05:46:06.251Z,100.00
2023-05-10T05:48:34.301Z,100.00
2023-05-10T05:51:02.838Z,100.00
2023-05-10T05:53:31.329Z,100.00
2023-05-10T05:56:00.989Z,100.00
2023-05-10T05:58:29.130Z,99.60
2023-05-10T06:00:57.131Z,100.00
2023-05-10T06:03:25.099Z,100.00
2023-05-10T06:05:53.145Z,100.00
2023-05-10T06:08:21.369Z,100.00
2023-05-10T06:10:49.354Z,98.74
2023-05-10T06:13:18.729Z,96.96
2023-05-10T06:15:46.630Z,98.40
2023-05-10T06:18:14.580Z,98.56
2023-05-10T06:20:44.443Z,98.87
2023-05-10T06:23:12.510Z,98.37
2023-05-10T06:25:40.435Z,99.09
2023-05-10T06:28:08.340Z,100.00
2023-05-10T06:30:38.338Z,100.00
2023-05-10T06:33:06.360Z,100.00
2023-05-10T06:35:34.752Z,98.60
2023-05-10T06:38:02.670Z,100.00
2023-05-10T06:40:30.627Z,99.16
2023-05-10T06:42:58.563Z,98.90
2023-05-10T06:45:26.482Z,100.00
2023-05-10T06:47:56.027Z,100.00
2023-05-10T06:50:23.943Z,99.86
2023-05-10T06:52:53.080Z,100.00
2023-05-10T06:55:21.387Z,100.00
2023-05-10T06:57:49.557Z,99.84
2023-05-10T07:00:18.600Z,95.26
2023-05-10T07:02:46.866Z,94.66
2023-05-10T07:05:16.418Z,99.14
2023-05-10T07:07:44.532Z,95.75
2023-05-10T07:10:12.509Z,89.01
2023-05-10T07:12:40.815Z,86.23
2023-05-10T07:15:10.461Z,89.96
2023-05-10T07:17:38.432Z,94.83
2023-05-10T07:20:07.674Z,92.82
2023-05-10T07:22:37.150Z,87.88
2023-05-10T07:25:05.933Z,90.86
2023-05-10T07:27:33.917Z,87.91
2023-05-10T07:30:02.561Z,84.28
2023-05-10T07:32:30.748Z,82.19
2023-05-10T07:34:58.722Z,80.61
2023-05-10T07:37:26.754Z,77.22
2023-05-10T07:39:57.170Z,75.43
2023-05-10T07:42:25.058Z,78.86
2023-05-10T07:44:53.299Z,77.85
2023-05-10T07:47:21.643Z,75.63
2023-05-10T07:49:49.566Z,78.26
2023-05-10T07:52:17.614Z,78.44
2023-05-10T07:54:45.671Z,70.71
2023-05-10T07:57:18.454Z,77.26
2023-05-10T07:59:46.783Z,74.29
2023-05-10T08:02:14.750Z,72.53
2023-05-10T08:04:42.865Z,75.87
2023-05-10T08:07:11.823Z,76.39
2023-05-10T08:09:39.780Z,73.25
2023-05-10T08:12:08.414Z,81.97
2023-05-10T08:14:38.005Z,73.78
2023-05-10T08:17:06.298Z,66.11
2023-05-10T08:19:34.222Z,62.07
2023-05-10T08:22:02.165Z,61.30
2023-05-10T08:24:30.111Z,60.38
2023-05-10T08:26:58.379Z,60.27
2023-05-10T08:29:26.797Z,54.98
2023-05-10T08:31:57.664Z,53.82
2023-05-10T08:34:26.266Z,53.70
2023-05-10T08:36:54.333Z,52.80
2023-05-10T08:39:29.840Z,45.48
2023-05-10T08:42:04.036Z,47.91
2023-05-10T08:44:34.078Z,47.37
2023-05-10T08:47:06.747Z,47.83
2023-05-10T08:49:35.932Z,45.50
2023-05-10T08:52:06.590Z,49.31
2023-05-10T08:54:35.451Z,44.82
2023-05-10T08:57:04.194Z,46.69
2023-05-10T08:59:32.365Z,45.34
2023-05-10T09:02:01.135Z,45.04
2023-05-10T09:04:31.648Z,45.87
2023-05-10T09:06:59.856Z,43.87
2023-05-10T09:09:29.271Z,42.33
2023-05-10T09:11:57.502Z,44.67
2023-05-10T09:14:26.847Z,42.47
2023-05-10T09:16:56.370Z,42.81
2023-05-10T09:19:24.404Z,42.89
2023-05-10T09:21:53.758Z,44.51
2023-05-10T09:24:21.731Z,44.20
2023-05-10T09:26:50.436Z,42.56
2023-05-10T09:29:18.443Z,43.71
2023-05-10T09:31:48.540Z,45.83
2023-05-10T09:34:21.338Z,46.68
2023-05-10T09:36:58.482Z,49.25
2023-05-10T09:39:36.151Z,48.52
2023-05-10T09:42:05.991Z,45.40
2023-05-10T09:44:34.655Z,45.27
2023-05-10T09:47:02.889Z,47.83
2023-05-10T09:49:31.437Z,44.77
2023-05-10T09:52:05.473Z,40.86
2023-05-10T09:54:33.825Z,44.73
2023-05-10T09:57:02.049Z,42.61
2023-05-10T09:59:31.470Z,43.36
2023-05-10T10:02:01.848Z,45.10
2023-05-10T10:04:30.231Z,42.78
2023-05-10T10:07:04.867Z,43.93
2023-05-10T10:09:33.494Z,46.04
2023-05-10T10:12:02.262Z,41.74
2023-05-10T10:14:31.078Z,45.17
2023-05-10T10:17:08.286Z,44.71
2023-05-10T10:19:38.060Z,42.59
2023-05-10T10:22:08.334Z,43.58
2023-05-10T10:24:36.307Z,45.12
2023-05-10T10:27:12.702Z,45.35
2023-05-10T10:29:50.251Z,43.79
2023-05-10T10:32:28.154Z,45.29
2023-05-10T10:34:57.429Z,46.78
2023-05-10T10:37:45.052Z,43.92
2023-05-10T10:40:26.668Z,43.99
2023-05-10T10:42:55.713Z,45.03
2023-05-10T10:45:25.180Z,43.10
2023-05-10T10:48:17.102Z,43.55
2023-05-10T10:50:46.929Z,39.21
2023-05-10T10:53:16.280Z,37.11
2023-05-10T10:55:50.803Z,39.13
2023-05-10T10:58:32.830Z,42.85
2023-05-10T11:01:16.585Z,41.57
2023-05-10T11:04:19.674Z,40.11
2023-05-10T11:06:47.671Z,36.68
2023-05-10T11:09:17.008Z,40.29
2023-05-10T11:11:53.115Z,37.08
2023-05-10T11:14:23.441Z,38.61
2023-05-10T11:16:51.512Z,40.53
2023-05-10T11:19:20.397Z,41.26
2023-05-10T11:21:49.869Z,39.44
2023-05-10T11:24:21.154Z,39.70
2023-05-10T11:26:52.913Z,41.52
2023-05-10T11:29:21.175Z,41.58
2023-05-10T11:31:50.465Z,42.12
2023-05-10T11:34:28.178Z,39.55
2023-05-10T11:36:57.281Z,41.67
2023-05-10T11:39:30.253Z,41.87
2023-05-10T11:41:58.612Z,42.18
2023-05-10T11:44:31.984Z,39.01
2023-05-10T11:47:01.000Z,39.23
2023-05-10T11:49:29.229Z,37.87
2023-05-10T11:52:06.271Z,37.64
2023-05-10T11:54:36.382Z,37.63
2023-05-10T11:57:04.861Z,37.96
2023-05-10T11:59:32.889Z,40.42
2023-05-10T12:02:01.196Z,37.48
2023-05-10T12:04:30.783Z,39.03
2023-05-10T12:06:58.831Z,37.26
2023-05-10T12:09:39.579Z,38.88
2023-05-10T12:12:12.602Z,35.83
2023-05-10T12:14:40.520Z,38.68
2023-05-10T12:17:08.941Z,38.69
2023-05-10T12:19:40.444Z,38.87
2023-05-10T12:22:08.479Z,39.60
2023-05-10T12:24:37.084Z,37.84
2023-05-10T12:27:09.233Z,38.68
2023-05-10T12:29:42.231Z,39.33
2023-05-10T12:32:11.218Z,40.30
2023-05-10T12:34:39.590Z,40.44
2023-05-10T12:37:07.616Z,38.35
2023-05-10T12:39:42.603Z,37.02
2023-05-10T12:42:11.172Z,38.71
2023-05-10T12:44:40.923Z,39.92
2023-05-10T12:47:08.942Z,40.47
2023-05-10T12:49:36.850Z,36.44
2023-05-10T12:52:04.942Z,36.87
2023-05-10T12:54:32.841Z,38.99
2023-05-10T12:57:00.851Z,37.95
2023-05-10T12:59:28.783Z,39.37
2023-05-10T13:01:59.308Z,38.51
2023-05-10T13:04:27.306Z,37.43
2023-05-10T13:06:57.145Z,38.05
2023-05-10T13:09:25.060Z,38.22
2023-05-10T13:11:54.524Z,38.36
2023-05-10T13:14:22.547Z,38.96
2023-05-10T13:16:50.528Z,42.20
2023-05-10T13:19:19.910Z,41.66
2023-05-10T13:21:47.964Z,44.14
2023-05-10T13:24:15.850Z,42.71
2023-05-10T13:26:43.777Z,42.66
2023-05-10T13:29:11.849Z,41.96
2023-05-10T13:31:39.765Z,42.54
2023-05-10T13:34:07.716Z,42.75
2023-05-10T13:36:36.979Z,42.19
2023-05-10T13:39:06.384Z,42.29
2023-05-10T13:41:35.042Z,41.73
2023-05-10T13:44:03.000Z,42.53
2023-05-10T13:46:31.415Z,43.23
2023-05-10T13:48:59.376Z,43.05
2023-05-10T13:51:27.274Z,44.32
2023-05-10T13:53:56.614Z,43.14
2023-05-10T13:56:24.617Z,44.95
2023-05-10T13:58:52.559Z,44.63
2023-05-10T14:01:20.600Z,43.59
2023-05-10T14:03:49.325Z,43.07
2023-05-10T14:06:17.386Z,45.14
2023-05-10T14:08:45.343Z,46.52
2023-05-10T14:11:14.663Z,45.20
2023-05-10T14:13:42.606Z,44.91
2023-05-10T14:16:10.532Z,44.59
2023-05-10T14:18:38.566Z,45.34
2023-05-10T14:21:06.619Z,42.39
2023-05-10T14:23:34.541Z,42.57
2023-05-10T14:26:02.811Z,42.50
2023-05-10T14:28:32.588Z,40.51
2023-05-10T14:31:00.627Z,39.86
2023-05-10T14:33:28.650Z,40.92
2023-05-10T14:35:57.664Z,42.21
2023-05-10T14:38:25.626Z,42.11
2023-05-10T14:40:53.540Z,40.87
2023-05-10T14:43:21.454Z,41.07
2023-05-10T14:45:50.795Z,41.58
2023-05-10T14:48:18.675Z,41.80
2023-05-10T14:50:47.581Z,42.20
2023-05-10T14:53:15.532Z,43.26
2023-05-10T14:55:43.584Z,43.61
2023-05-10T14:58:11.496Z,42.49
2023-05-10T15:00:39.379Z,43.63
2023-05-10T15:03:09.298Z,42.56
2023-05-10T15:05:38.348Z,42.25
2023-05-10T15:08:06.748Z,41.71
2023-05-10T15:10:34.836Z,43.17
2023-05-10T15:13:02.754Z,41.88
2023-05-10T15:15:30.736Z,42.16
2023-05-10T15:17:58.730Z,42.04
2023-05-10T15:20:28.188Z,42.14
2023-05-10T15:22:56.117Z,42.51
2023-05-10T15:25:24.845Z,42.68
2023-05-10T15:27:52.784Z,42.71
2023-05-10T15:30:20.845Z,42.37
2023-05-10T15:32:48.973Z,42.92
2023-05-10T15:35:17.974Z,43.16
2023-05-10T15:37:49.623Z,43.19
2023-05-10T15:40:17.653Z,44.19
2023-05-10T15:42:45.566Z,44.75
2023-05-10T15:45:13.582Z,44.75
2023-05-10T15:47:41.574Z,45.19
2023-05-10T15:50:10.325Z,45.81
2023-05-10T15:52:38.359Z,46.87
2023-05-10T15:55:13.087Z,48.15
2023-05-10T15:57:41.495Z,48.91
2023-05-10T16:00:11.033Z,49.54
2023-05-10T16:02:39.316Z,50.40
2023-05-10T16:05:07.818Z,52.44
2023-05-10T16:07:35.760Z,53.35
2023-05-10T16:10:04.222Z,54.57
2023-05-10T16:12:34.313Z,54.75
2023-05-10T16:15:02.279Z,57.14
2023-05-10T16:17:30.278Z,56.21
2023-05-10T16:19:58.254Z,62.22
2023-05-10T16:22:27.330Z,58.28
2023-05-10T16:24:55.280Z,58.79
2023-05-10T16:27:23.208Z,58.96
2023-05-10T16:29:52.522Z,58.93
2023-05-10T16:32:20.484Z,61.04
2023-05-10T16:34:50.238Z,58.49
2023-05-10T16:37:18.345Z,61.71
2023-05-10T16:39:46.545Z,63.36
2023-05-10T16:42:14.956Z,66.48
2023-05-10T16:44:42.923Z,62.57
2023-05-10T16:47:12.238Z,63.83
2023-05-10T16:49:40.131Z,65.69
2023-05-10T16:52:08.427Z,66.99
2023-05-10T16:54:36.392Z,66.07
2023-05-10T16:57:04.335Z,64.57
2023-05-10T16:59:32.290Z,67.45
2023-05-10T17:02:00.237Z,69.52
2023-05-10T17:04:29.655Z,69.99
2023-05-10T17:06:57.745Z,69.69
2023-05-10T17:09:25.904Z,70.26
2023-05-10T17:11:54.235Z,69.29
2023-05-10T17:14:22.175Z,68.71
2023-05-10T17:16:52.693Z,67.73
2023-05-10T17:19:20.814Z,68.02
2023-05-10T17:21:50.243Z,70.49
2023-05-10T17:24:18.212Z,67.84
2023-05-10T17:26:46.365Z,67.65
2023-05-10T17:29:16.244Z,66.38
2023-05-10T17:31:44.231Z,68.73
2023-05-10T17:34:12.230Z,68.05
2023-05-10T17:36:40.486Z,67.96
2023-05-10T17:39:09.806Z,68.41
2023-05-10T17:41:37.858Z,68.57
2023-05-10T17:44:05.824Z,67.97
2023-05-10T17:46:33.772Z,69.14
2023-05-10T17:49:01.721Z,70.74
2023-05-10T17:51:30.064Z,71.58
2023-05-10T17:53:57.971Z,72.38
2023-05-10T17:56:27.417Z,71.57
2023-05-10T17:58:55.411Z,72.12
2023-05-10T18:01:23.381Z,71.00
2023-05-10T18:03:51.921Z,73.97
2023-05-10T18:06:20.017Z,73.00
2023-05-10T18:08:47.927Z,72.30
2023-05-10T18:11:16.706Z,74.43
2023-05-10T18:13:46.013Z,74.90
2023-05-10T18:16:14.188Z,76.28
2023-05-10T18:18:42.124Z,74.26
2023-05-10T18:21:10.066Z,74.30
2023-05-10T18:23:38.018Z,73.26
2023-05-10T18:26:05.971Z,72.31
2023-05-10T18:28:33.904Z,74.96
2023-05-10T18:31:03.314Z,75.37
2023-05-10T18:33:31.280Z,74.85
2023-05-10T18:35:59.198Z,75.40
2023-05-10T18:38:27.194Z,74.93
2023-05-10T18:40:55.123Z,77.98
2023-05-10T18:43:23.048Z,77.86
2023-05-10T18:45:51.231Z,77.58
2023-05-10T18:48:20.645Z,76.85
2023-05-10T18:50:48.529Z,76.69
2023-05-10T18:53:16.497Z,77.88
2023-05-10T18:55:44.915Z,76.97
2023-05-10T18:58:14.458Z,76.32
2023-05-10T19:00:42.461Z,76.36
2023-05-10T19:03:10.491Z,77.33
2023-05-10T19:05:39.878Z,77.59
2023-05-10T19:08:07.812Z,77.52
2023-05-10T19:10:35.767Z,77.30
2023-05-10T19:13:03.657Z,76.67
2023-05-10T19:15:31.732Z,76.18
2023-05-10T19:17:59.748Z,76.73
2023-05-10T19:20:29.562Z,76.34
2023-05-10T19:23:09.660Z,77.95
2023-05-10T19:25:39.466Z,76.20
2023-05-10T19:28:09.581Z,76.71
2023-05-10T19:30:38.038Z,78.26
2023-05-10T19:33:06.079Z,78.10
2023-05-10T19:35:35.767Z,77.95
2023-05-10T19:38:05.169Z,78.30
2023-05-10T19:40:33.093Z,77.18
2023-05-10T19:43:01.509Z,76.29
2023-05-10T19:45:29.586Z,76.77
2023-05-10T19:47:57.577Z,76.09
2023-05-10T19:50:25.655Z,76.56
2023-05-10T19:52:53.599Z,76.81
2023-05-10T19:55:33.273Z,76.47
2023-05-10T19:58:01.943Z,76.37
2023-05-10T20:00:29.937Z,74.06
2023-05-10T20:02:57.870Z,75.80
2023-05-10T20:05:25.866Z,76.70
2023-05-10T20:07:54.000Z,77.60
2023-05-10T20:10:24.658Z,75.05
2023-05-10T20:12:55.232Z,76.03
2023-05-10T20:15:24.398Z,76.01
2023-05-10T20:17:53.726Z,75.03
2023-05-10T20:20:22.623Z,75.21
2023-05-10T20:22:50.988Z,77.16
2023-05-10T20:25:19.798Z,78.33
2023-05-10T20:27:47.680Z,77.55
2023-05-10T20:30:17.868Z,76.70
2023-05-10T20:32:46.232Z,78.44
2023-05-10T20:35:14.224Z,76.25
2023-05-10T20:37:42.200Z,76.71
2023-05-10T20:40:11.304Z,77.46
2023-05-10T20:42:39.231Z,76.80
2023-05-10T20:45:08.271Z,79.24
2023-05-10T20:47:38.070Z,79.80
2023-05-10T20:50:06.888Z,81.14
2023-05-10T20:52:34.825Z,80.52
2023-05-10T20:55:02.824Z,80.48
2023-05-10T20:57:30.727Z,80.16
2023-05-10T20:59:58.758Z,81.72
2023-05-10T21:02:26.723Z,81.08
2023-05-10T21:04:57.994Z,81.83
2023-05-10T21:07:26.299Z,82.65
2023-05-10T21:09:54.187Z,81.37
2023-05-10T21:12:22.066Z,83.76
2023-05-10T21:14:49.956Z,85.60
2023-05-10T21:17:19.991Z,85.15
2023-05-10T21:19:48.222Z,85.58
2023-05-10T21:22:17.708Z,86.58
2023-05-10T21:24:45.698Z,85.83
2023-05-10T21:27:13.645Z,85.35
2023-05-10T21:29:41.649Z,86.87
2023-05-10T21:32:09.919Z,87.39
2023-05-10T21:34:37.949Z,86.68
2023-05-10T21:37:05.904Z,88.56
2023-05-10T21:39:35.233Z,88.70
2023-05-10T21:42:03.814Z,88.39
2023-05-10T21:44:32.225Z,89.96
2023-05-10T21:47:00.176Z,88.24
2023-05-10T21:49:28.173Z,89.60
2023-05-10T21:51:56.113Z,89.04
2023-05-10T21:54:24.025Z,88.95
2023-05-10T21:56:53.329Z,88.81
2023-05-10T21:59:22.128Z,90.80
2023-05-10T22:01:50.167Z,93.69
2023-05-10T22:04:18.108Z,91.72
2023-05-10T22:06:46.189Z,93.74
2023-05-10T22:09:14.184Z,94.76
2023-05-10T22:11:42.097Z,95.62
2023-05-10T22:14:11.451Z,95.46
2023-05-10T22:16:39.414Z,93.75
2023-05-10T22:19:07.394Z,94.23
2023-05-10T22:21:35.336Z,93.41
2023-05-10T22:24:03.267Z,93.29
2023-05-10T22:26:31.344Z,93.87
2023-05-10T22:28:59.278Z,94.53
2023-05-10T22:31:28.633Z,95.32
2023-05-10T22:33:56.576Z,94.91
2023-05-10T22:36:24.485Z,96.51
2023-05-10T22:38:52.422Z,97.32
2023-05-10T22:41:20.335Z,96.48
2023-05-10T22:43:48.226Z,95.65
2023-05-10T22:46:16.307Z,95.73
2023-05-10T22:48:45.666Z,94.82
2023-05-10T22:51:13.573Z,94.81
2023-05-10T22:53:41.492Z,96.28
2023-05-10T22:56:09.463Z,97.27
2023-05-10T22:58:37.454Z,96.41
2023-05-10T23:01:05.738Z,95.53
2023-05-10T23:03:33.674Z,96.21
2023-05-10T23:06:02.983Z,97.32
2023-05-10T23:08:30.898Z,96.95
2023-05-10T23:10:58.913Z,97.26
2023-05-10T23:13:26.963Z,98.47
2023-05-10T23:15:54.952Z,97.20
2023-05-10T23:18:22.984Z,97.09
2023-05-10T23:20:50.944Z,97.04
2023-05-10T23:23:20.308Z,96.81
2023-05-10T23:25:48.375Z,96.69
2023-05-10T23:28:16.456Z,99.26
2023-05-10T23:30:44.373Z,98.40
2023-05-10T23:33:14.020Z,100.00
2023-05-10T23:35:41.922Z,97.67
2023-05-10T23:38:09.850Z,97.22
2023-05-10T23:40:39.130Z,96.05
2023-05-10T23:43:07.152Z,95.76
2023-05-10T23:45:35.304Z,94.68
2023-05-10T23:48:03.325Z,96.36
2023-05-10T23:50:31.384Z,95.98
2023-05-10T23:52:59.277Z,97.05
2023-05-10T23:55:27.335Z,96.96
2023-05-10T23:57:57.089Z,96.86
